Time;durP1;ratioP1;P1;durP2;ratioP2;P2;SDS_P1;SDS_P2;PMS_P1;PMS_P2;Temp;Humidity;BMP_temperature;BMP_pressure;BME280_temperature;BME280_humidity;BME280_pressure;Samples;Min_cycle;Max_cycle;Signal;HPM_P1;HPM_P2
2023/03/07 00:02:23;;;;;;;9.00;7.43;;;15.80;64.00;;;;;;3927434;30;20051;-67
2023/03/07 00:05:05;;;;;;;8.37;7.47;;;15.80;63.90;;;;;;3916379;30;20055;-67
2023/03/07 00:07:45;;;;;;;7.18;6.47;;;15.90;63.90;;;;;;3913237;30;20346;-66
2023/03/07 00:10:27;;;;;;;8.25;6.32;;;16.00;63.60;;;;;;3913132;30;20534;-65
2023/03/07 00:13:09;;;;;;;7.38;6.60;;;16.00;63.70;;;;;;3912830;30;20133;-66
2023/03/07 00:15:49;;;;;;;6.80;5.93;;;16.00;63.20;;;;;;3911319;30;20151;-66
2023/03/07 00:18:31;;;;;;;6.47;5.75;;;16.10;63.20;;;;;;3925982;30;20051;-66
2023/03/07 00:21:14;;;;;;;6.70;5.97;;;16.10;63.10;;;;;;3924645;30;20149;-69
2023/03/07 00:23:55;;;;;;;5.63;5.07;;;16.10;63.00;;;;;;3927097;30;20089;-65
2023/03/07 00:26:38;;;;;;;5.43;4.35;;;16.20;62.90;;;;;;3927156;30;20075;-65
2023/03/07 00:29:21;;;;;;;4.85;4.10;;;16.20;63.00;;;;;;3912642;30;20067;-66
2023/03/07 00:32:02;;;;;;;4.18;3.88;;;16.10;63.00;;;;;;3912523;30;20559;-66
2023/03/07 00:34:43;;;;;;;4.40;4.00;;;16.10;63.30;;;;;;3901603;30;20075;-66
2023/03/07 00:37:24;;;;;;;4.38;3.92;;;16.10;63.40;;;;;;3912934;30;20073;-66
2023/03/07 00:40:08;;;;;;;5.22;4.22;;;16.10;63.30;;;;;;3912640;30;20195;-66
2023/03/07 00:42:48;;;;;;;3.95;3.55;;;16.10;63.30;;;;;;3901631;30;20064;-66
2023/03/07 00:45:31;;;;;;;4.13;3.38;;;16.10;63.20;;;;;;3913328;30;20055;-66
2023/03/07 00:48:12;;;;;;;4.82;3.05;;;16.20;63.00;;;;;;3915430;30;20416;-67
2023/03/07 00:50:53;;;;;;;3.63;2.97;;;16.20;62.80;;;;;;3926992;30;20074;-67
2023/03/07 00:53:35;;;;;;;4.68;3.00;;;16.20;62.80;;;;;;3926786;30;20193;-67
2023/03/07 00:56:17;;;;;;;3.50;2.05;;;16.30;62.90;;;;;;3915570;30;20063;-67
2023/03/07 00:58:58;;;;;;;3.88;2.47;;;16.30;62.80;;;;;;3908983;30;20520;-67
2023/03/07 01:01:41;;;;;;;3.33;2.35;;;16.30;62.50;;;;;;3899598;30;20185;-67
2023/03/07 01:04:22;;;;;;;2.58;2.20;;;16.40;62.40;;;;;;3915752;30;20058;-67
2023/03/07 01:07:02;;;;;;;4.65;2.30;;;16.40;62.40;;;;;;3914244;30;20059;-67
2023/03/07 01:09:45;;;;;;;3.33;2.00;;;16.30;62.50;;;;;;3925321;30;20063;-67
2023/03/07 01:12:26;;;;;;;2.80;2.30;;;16.20;62.60;;;;;;3901335;30;20558;-66
2023/03/07 01:15:08;;;;;;;4.07;2.25;;;16.20;62.90;;;;;;3912219;30;20059;-67
2023/03/07 01:17:51;;;;;;;2.50;2.00;;;16.20;62.90;;;;;;3891368;30;20134;-66
2023/03/07 01:20:34;;;;;;;3.30;1.95;;;16.30;62.90;;;;;;3915014;30;20105;-66
2023/03/07 01:23:14;;;;;;;2.67;1.67;;;16.30;62.70;;;;;;3905479;30;20160;-66
2023/03/07 01:25:56;;;;;;;3.70;2.00;;;16.30;63.50;;;;;;3914849;30;20059;-66
2023/03/07 01:28:36;;;;;;;3.75;1.67;;;16.30;62.80;;;;;;3909967;30;20055;-67
2023/03/07 01:31:18;;;;;;;3.58;1.67;;;16.40;62.80;;;;;;3915308;30;20063;-66
2023/03/07 01:34:01;;;;;;;6.00;1.70;;;16.40;62.60;;;;;;3915133;30;20451;-66
2023/03/07 01:36:44;;;;;;;4.85;1.58;;;16.40;62.50;;;;;;3915313;30;20051;-67
2023/03/07 01:39:25;;;;;;;;;;;16.40;62.60;;;;;;3915877;30;20547;-66
2023/03/07 01:42:12;;;;;;;6.13;1.52;;;16.40;62.60;;;;;;3923911;30;19933;-67
2023/03/07 01:45:03;;;;;;;4.72;1.45;;;16.40;62.40;;;;;;3926255;30;20059;-66
2023/03/07 01:47:52;;;;;;;6.43;1.40;;;16.40;62.40;;;;;;3900746;30;20067;-66
2023/03/07 01:50:33;;;;;;;4.60;1.30;;;16.40;62.50;;;;;;3911960;30;20516;-66
2023/03/07 01:53:15;;;;;;;4.25;1.45;;;16.30;62.60;;;;;;3909601;30;20200;-67
2023/03/07 01:55:56;;;;;;;7.13;1.10;;;16.30;62.50;;;;;;3899358;30;20629;-66
2023/03/07 01:58:39;;;;;;;5.90;1.30;;;16.20;62.70;;;;;;3925760;30;20058;-66
2023/03/07 02:01:20;;;;;;;1.98;0.90;;;16.10;62.80;;;;;;3927915;30;20058;-67
2023/03/07 02:04:06;;;;;;;6.93;1.30;;;16.10;63.30;;;;;;3918364;30;20067;-66
2023/03/07 02:06:48;;;;;;;6.40;1.45;;;16.00;63.30;;;;;;3917891;30;20055;-66
2023/03/07 02:09:32;;;;;;;4.82;0.90;;;16.00;63.70;;;;;;3903748;30;20068;-65
2023/03/07 02:12:14;;;;;;;5.35;1.27;;;16.00;63.80;;;;;;3903802;30;20070;-66
2023/03/07 02:14:55;;;;;;;7.47;1.35;;;16.00;63.60;;;;;;3926397;30;20386;-67
2023/03/07 02:17:36;;;;;;;8.95;1.30;;;16.10;63.40;;;;;;3917565;30;20059;-67
2023/03/07 02:20:30;;;;;;;4.13;1.13;;;16.10;63.40;;;;;;3907940;30;20108;-67
2023/03/07 02:23:23;;;;;;;6.53;2.22;;;16.10;64.20;;;;;;3928663;30;20833;-67
2023/03/07 02:26:11;;;;;;;10.23;2.08;;;16.10;64.40;;;;;;3914294;30;20055;-66
2023/03/07 02:28:54;;;;;;;6.25;1.17;;;16.10;63.40;;;;;;3929031;30;20051;-67
2023/03/07 02:31:35;;;;;;;4.93;1.77;;;16.20;63.80;;;;;;3929096;30;20137;-67
2023/03/07 02:34:21;;;;;;;8.18;1.55;;;16.20;62.90;;;;;;3917541;30;20058;-67
2023/03/07 02:37:08;;;;;;;6.05;1.50;;;16.20;62.80;;;;;;3899963;30;20059;-66
2023/03/07 02:39:49;;;;;;;6.70;1.80;;;16.20;62.90;;;;;;3908158;30;20059;-67
2023/03/07 02:42:33;;;;;;;8.75;1.90;;;16.10;62.80;;;;;;3925036;30;20067;-65
2023/03/07 02:45:20;;;;;;;9.35;1.77;;;16.10;63.00;;;;;;3903570;30;20055;-66
2023/03/07 02:48:01;;;;;;;8.85;1.55;;;16.00;63.40;;;;;;3899385;30;20064;-66
2023/03/07 02:50:43;;;;;;;5.95;1.27;;;16.00;63.50;;;;;;3896813;30;20528;-68
2023/03/07 02:53:24;;;;;;;7.18;1.08;;;16.10;63.30;;;;;;3912735;30;20495;-68
2023/03/07 02:56:05;;;;;;;10.47;1.93;;;16.20;62.90;;;;;;3903052;30;20056;-68
2023/03/07 02:58:46;;;;;;;5.15;1.38;;;16.30;62.50;;;;;;3897550;30;20302;-68
2023/03/07 03:01:28;;;;;;;6.00;1.27;;;16.40;62.20;;;;;;3902660;30;20076;-68
2023/03/07 03:04:09;;;;;;;4.00;1.55;;;16.40;62.20;;;;;;3914715;30;20678;-68
2023/03/07 03:06:50;;;;;;;7.30;1.60;;;16.40;62.10;;;;;;3887799;30;20056;-68
2023/03/07 03:09:31;;;;;;;6.10;1.35;;;16.40;62.10;;;;;;3917710;30;20101;-67
2023/03/07 03:12:12;;;;;;;4.15;0.98;;;16.40;62.10;;;;;;3928646;30;20055;-67
2023/03/07 03:14:52;;;;;;;4.78;1.50;;;16.50;62.00;;;;;;3926206;30;20059;-69
2023/03/07 03:17:35;;;;;;;8.70;1.80;;;16.50;61.90;;;;;;3895850;30;20067;-68
2023/03/07 03:20:18;;;;;;;6.63;1.23;;;16.50;61.70;;;;;;3918661;30;20233;-69
2023/03/07 03:22:58;;;;;;;5.20;1.55;;;16.50;61.90;;;;;;3916945;30;20067;-68
2023/03/07 03:25:39;;;;;;;7.20;1.33;;;16.50;61.50;;;;;;3910123;30;20063;-69
2023/03/07 03:28:21;;;;;;;3.58;1.45;;;16.40;61.60;;;;;;3927665;30;20109;-69
2023/03/07 03:31:04;;;;;;;2.55;0.88;;;16.40;61.60;;;;;;3916881;30;20059;-68
2023/03/07 03:33:48;;;;;;;4.47;1.50;;;16.40;61.70;;;;;;3917104;30;20073;-68
2023/03/07 03:36:28;;;;;;;4.47;1.08;;;16.40;61.70;;;;;;3916757;30;20082;-67
2023/03/07 03:39:14;;;;;;;4.38;1.15;;;16.30;62.00;;;;;;3916820;30;20056;-68
2023/03/07 03:41:59;;;;;;;4.95;1.33;;;16.30;61.70;;;;;;3916875;30;20059;-68
2023/03/07 03:44:41;;;;;;;4.05;0.90;;;16.20;61.80;;;;;;3916558;30;20067;-66
2023/03/07 03:47:22;;;;;;;5.53;1.20;;;16.20;62.30;;;;;;3913142;30;20535;-66
2023/03/07 03:50:04;;;;;;;3.80;0.90;;;16.20;62.30;;;;;;3922186;30;20063;-66
2023/03/07 03:52:46;;;;;;;5.65;1.30;;;16.20;62.30;;;;;;3911263;30;20087;-67
2023/03/07 03:55:26;;;;;;;4.47;1.53;;;16.10;62.30;;;;;;3916318;30;20394;-66
2023/03/07 03:58:07;;;;;;;4.75;1.05;;;16.10;62.60;;;;;;3906876;30;20503;-67
2023/03/07 04:00:47;;;;;;;8.35;1.42;;;16.10;62.40;;;;;;3927356;30;20063;-66
2023/03/07 04:03:28;;;;;;;3.60;1.15;;;16.10;62.30;;;;;;3916704;30;20062;-66
2023/03/07 04:06:12;;;;;;;5.68;1.55;;;16.20;62.40;;;;;;3915958;30;20055;-66
2023/03/07 04:08:54;;;;;;;5.38;1.10;;;16.20;62.10;;;;;;3916205;30;20149;-66
2023/03/07 04:11:36;;;;;;;4.57;1.23;;;16.20;62.00;;;;;;3927607;30;20062;-66
2023/03/07 04:14:16;;;;;;;6.13;1.08;;;16.30;61.70;;;;;;3927043;30;20063;-66
2023/03/07 04:16:58;;;;;;;;;;;16.30;61.30;;;;;;3897859;30;20138;-66
2023/03/07 04:19:39;;;;;;;2.45;0.82;;;16.30;61.50;;;;;;3910979;30;19937;-68
2023/03/07 04:22:22;;;;;;;;;;;16.40;61.50;;;;;;3916220;30;20067;-68
2023/03/07 04:25:03;;;;;;;4.40;1.55;;;16.40;61.30;;;;;;3925072;30;20014;-69
2023/03/07 04:27:44;;;;;;;7.28;1.23;;;16.40;61.40;;;;;;3909991;30;20185;-67
2023/03/07 04:30:25;;;;;;;6.28;1.20;;;16.40;61.30;;;;;;3916299;30;20059;-67
2023/03/07 04:33:06;;;;;;;5.38;1.20;;;16.30;61.30;;;;;;3916076;30;20055;-67
2023/03/07 04:35:47;;;;;;;3.70;0.90;;;16.30;61.50;;;;;;3915194;30;20102;-67
2023/03/07 04:38:29;;;;;;;;;;;16.20;61.40;;;;;;3926975;30;20484;-67
2023/03/07 04:41:13;;;;;;;5.70;1.15;;;16.20;61.50;;;;;;3926900;30;20366;-67
2023/03/07 04:43:54;;;;;;;3.22;1.20;;;16.20;61.50;;;;;;3925683;30;20063;-66
2023/03/07 04:46:37;;;;;;;3.15;0.75;;;16.10;61.80;;;;;;3892950;30;20212;-66
2023/03/07 04:49:18;;;;;;;2.67;1.10;;;16.10;61.90;;;;;;3891328;30;20103;-66
2023/03/07 04:51:59;;;;;;;7.30;1.37;;;16.00;62.10;;;;;;3912248;30;20079;-68
2023/03/07 04:54:41;;;;;;;8.13;1.63;;;16.00;62.30;;;;;;3895104;30;20051;-69
2023/03/07 04:57:22;;;;;;;4.68;1.25;;;15.90;62.70;;;;;;3908502;30;20347;-69
2023/03/07 05:00:08;;;;;;;4.57;1.20;;;15.90;62.90;;;;;;3915556;30;20063;-69
2023/03/07 05:02:50;;;;;;;4.28;1.20;;;16.00;62.80;;;;;;3926829;30;20077;-67
2023/03/07 05:05:32;;;;;;;4.72;0.93;;;16.10;62.40;;;;;;3915150;30;20223;-68
2023/03/07 05:08:12;;;;;;;6.75;1.08;;;16.10;62.00;;;;;;3926403;30;20059;-69
2023/03/07 05:10:55;;;;;;;5.07;1.67;;;16.20;61.90;;;;;;3913573;30;20075;-70
2023/03/07 05:13:36;;;;;;;5.22;1.50;;;16.20;61.50;;;;;;3905320;30;20064;-69
2023/03/07 05:16:17;;;;;;;3.55;1.35;;;16.20;61.20;;;;;;3923388;30;20055;-68
2023/03/07 05:18:59;;;;;;;;;;;16.20;61.20;;;;;;3915674;30;20190;-67
2023/03/07 05:21:42;;;;;;;4.82;1.30;;;16.20;61.60;;;;;;3908979;30;19937;-68
2023/03/07 05:24:24;;;;;;;2.90;0.95;;;16.10;61.80;;;;;;3901263;30;20051;-67
2023/03/07 05:27:07;;;;;;;7.35;2.13;;;16.00;61.90;;;;;;3911832;30;20064;-67
2023/03/07 05:29:47;;;;;;;6.68;1.65;;;15.90;62.10;;;;;;3906516;30;20110;-67
2023/03/07 05:32:29;;;;;;;2.72;0.98;;;15.80;62.40;;;;;;3901545;30;20149;-67
2023/03/07 05:35:11;;;;;;;3.38;1.40;;;15.80;62.70;;;;;;3911658;30;20059;-67
2023/03/07 05:37:53;;;;;;;4.07;1.02;;;15.80;62.80;;;;;;3901144;30;20145;-67
2023/03/07 05:40:34;;;;;;;5.95;1.33;;;16.00;62.60;;;;;;3901318;30;20056;-66
2023/03/07 05:43:16;;;;;;;5.38;1.17;;;16.10;61.90;;;;;;3912688;30;20055;-67
2023/03/07 05:45:57;;;;;;;6.90;1.23;;;16.10;61.60;;;;;;3915372;30;20108;-67
2023/03/07 05:48:38;;;;;;;5.63;1.02;;;16.20;61.70;;;;;;3905707;30;20126;-67
2023/03/07 05:51:19;;;;;;;1.90;0.88;;;16.20;62.40;;;;;;3912067;30;20092;-66
2023/03/07 05:54:00;;;;;;;2.22;0.93;;;16.30;61.20;;;;;;3905522;30;20071;-67
2023/03/07 05:56:42;;;;;;;2.97;0.88;;;16.30;61.20;;;;;;3909797;30;20085;-67
2023/03/07 05:59:25;;;;;;;2.15;0.80;;;16.20;61.20;;;;;;3901118;30;20051;-67
2023/03/07 06:02:06;;;;;;;4.22;0.80;;;16.10;61.20;;;;;;3911138;30;20059;-67
2023/03/07 06:04:47;;;;;;;3.10;0.80;;;16.00;61.40;;;;;;3925782;30;20092;-66
2023/03/07 06:07:27;;;;;;;4.93;1.02;;;16.00;61.80;;;;;;3914718;30;20113;-66
2023/03/07 06:10:09;;;;;;;7.03;1.13;;;15.90;61.90;;;;;;3912274;30;20071;-66
2023/03/07 06:12:51;;;;;;;3.20;0.98;;;15.80;62.20;;;;;;3914965;30;20133;-66
2023/03/07 06:15:33;;;;;;;3.80;1.33;;;15.80;62.50;;;;;;3915425;30;20190;-66
2023/03/07 06:18:18;;;;;;;3.33;0.77;;;15.70;63.50;;;;;;3908569;30;20064;-66
2023/03/07 06:21:00;;;;;;;0.93;0.50;;;15.80;62.50;;;;;;3900839;30;20195;-66
2023/03/07 06:23:44;;;;;;;2.67;0.77;;;15.90;61.80;;;;;;3895847;30;20051;-66
2023/03/07 06:26:29;;;;;;;2.53;0.40;;;15.90;61.50;;;;;;3915394;30;20145;-66
2023/03/07 06:29:10;;;;;;;2.03;0.77;;;16.00;61.50;;;;;;3911683;30;20193;-66
2023/03/07 06:31:53;;;;;;;0.65;0.50;;;16.10;61.20;;;;;;3905288;30;20082;-66
2023/03/07 06:34:34;;;;;;;2.30;0.60;;;16.10;61.20;;;;;;3907412;30;20133;-66
2023/03/07 06:37:15;;;;;;;0.73;0.43;;;16.10;62.10;;;;;;3915171;30;20117;-66
2023/03/07 06:39:56;;;;;;;2.13;0.80;;;16.10;62.10;;;;;;3896279;30;20389;-68
2023/03/07 06:42:38;;;;;;;3.83;0.60;;;16.10;62.10;;;;;;3897000;30;20575;-68
2023/03/07 06:45:20;;;;;;;1.33;0.60;;;16.10;61.20;;;;;;3900670;30;20466;-68
2023/03/07 06:48:02;;;;;;;;;;;16.10;61.50;;;;;;3888984;30;20060;-68
2023/03/07 06:50:43;;;;;;;3.38;0.88;;;16.00;61.80;;;;;;3903350;30;20068;-69
2023/03/07 06:53:24;;;;;;;6.65;1.08;;;16.00;61.60;;;;;;3920567;30;20515;-69
2023/03/07 06:56:05;;;;;;;3.15;1.00;;;16.00;61.50;;;;;;3907565;30;20190;-70
2023/03/07 06:58:47;;;;;;;3.95;1.50;;;16.00;61.60;;;;;;3903090;30;20056;-66
2023/03/07 07:01:29;;;;;;;3.40;1.05;;;16.00;61.40;;;;;;3903217;30;20055;-66
2023/03/07 07:04:14;;;;;;;4.10;0.82;;;16.10;61.30;;;;;;3915441;30;20063;-65
2023/03/07 07:06:55;;;;;;;2.83;1.10;;;16.10;61.20;;;;;;3892670;30;20051;-64
2023/03/07 07:09:37;;;;;;;2.50;1.17;;;16.10;61.20;;;;;;3885394;30;20110;-66
2023/03/07 07:12:18;;;;;;;3.53;0.85;;;16.20;61.40;;;;;;3915262;30;20059;-66
2023/03/07 07:15:01;;;;;;;3.15;1.25;;;16.30;61.00;;;;;;3916699;30;20079;-66
2023/03/07 07:17:42;;;;;;;6.65;1.20;;;16.30;61.60;;;;;;3902738;30;20055;-66
2023/03/07 07:20:23;;;;;;;3.05;1.23;;;16.30;60.30;;;;;;3902468;30;20085;-66
2023/03/07 07:23:05;;;;;;;5.47;1.27;;;16.30;60.00;;;;;;3902229;30;20129;-68
2023/03/07 07:25:47;;;;;;;3.60;0.93;;;16.30;59.90;;;;;;3916828;30;20085;-67
2023/03/07 07:28:28;;;;;;;4.07;1.50;;;16.30;59.80;;;;;;3916810;30;20052;-67
2023/03/07 07:31:09;;;;;;;4.10;0.93;;;16.30;59.80;;;;;;3908039;30;20389;-67
2023/03/07 07:33:50;;;;;;;;;;;16.40;59.60;;;;;;3910880;30;20293;-68
2023/03/07 07:36:33;;;;;;;5.50;1.02;;;16.40;59.70;;;;;;3916445;30;19933;-67
2023/03/07 07:39:16;;;;;;;4.55;0.98;;;16.30;60.50;;;;;;3919417;30;20085;-67
2023/03/07 07:41:59;;;;;;;3.00;0.70;;;16.20;59.70;;;;;;3934875;30;20102;-68
2023/03/07 07:44:45;;;;;;;3.42;1.10;;;16.10;60.10;;;;;;3917941;30;20153;-68
2023/03/07 07:47:27;;;;;;;1.63;0.77;;;16.00;60.10;;;;;;3916574;30;20423;-68
2023/03/07 07:50:09;;;;;;;2.92;0.75;;;15.90;60.30;;;;;;3903187;30;20094;-68
2023/03/07 07:52:53;;;;;;;3.05;0.75;;;15.70;60.60;;;;;;3918758;30;20051;-68
2023/03/07 07:55:34;;;;;;;2.45;1.15;;;15.70;60.90;;;;;;3914504;30;20071;-68
2023/03/07 07:58:15;;;;;;;1.35;0.73;;;15.60;61.30;;;;;;3927382;30;20051;-68
2023/03/07 08:00:56;;;;;;;4.75;0.73;;;15.70;61.30;;;;;;3927199;30;20066;-68
2023/03/07 08:03:37;;;;;;;2.90;1.00;;;15.80;61.00;;;;;;3919860;30;20071;-68
2023/03/07 08:06:19;;;;;;;2.55;1.08;;;16.00;60.50;;;;;;3923066;30;20481;-68
2023/03/07 08:09:01;;;;;;;1.98;0.68;;;16.10;59.80;;;;;;3934338;30;20416;-68
2023/03/07 08:11:42;;;;;;;1.42;0.50;;;16.30;59.40;;;;;;3936436;30;20193;-66
2023/03/07 08:14:23;;;;;;;4.22;0.80;;;16.40;59.00;;;;;;3925367;30;20068;-68
2023/03/07 08:17:04;;;;;;;2.78;0.70;;;16.50;58.90;;;;;;3919090;30;20462;-68
2023/03/07 08:19:45;;;;;;;1.88;1.13;;;16.50;58.70;;;;;;3927190;30;20476;-68
2023/03/07 08:22:26;;;;;;;2.45;0.95;;;16.60;58.50;;;;;;3928519;30;20071;-68
2023/03/07 08:25:15;;;;;;;4.18;1.20;;;16.60;58.30;;;;;;3928556;30;20200;-67
2023/03/07 08:27:57;;;;;;;3.17;0.80;;;16.60;58.10;;;;;;3930536;30;20081;-68
2023/03/07 08:30:38;;;;;;;2.67;0.80;;;16.60;58.30;;;;;;3931863;30;20408;-69
2023/03/07 08:33:19;;;;;;;2.80;0.90;;;16.60;58.40;;;;;;3929925;30;20074;-68
2023/03/07 08:36:00;;;;;;;2.15;0.88;;;16.60;58.30;;;;;;3928385;30;20134;-68
2023/03/07 08:38:41;;;;;;;2.92;0.88;;;16.60;58.20;;;;;;3932618;30;20136;-67
2023/03/07 08:41:24;;;;;;;1.85;0.93;;;16.60;58.10;;;;;;3935207;30;20066;-66
2023/03/07 08:44:05;;;;;;;1.67;0.60;;;16.50;58.00;;;;;;3918919;30;20067;-66
2023/03/07 08:46:46;;;;;;;1.52;0.50;;;16.50;58.00;;;;;;3932138;30;20105;-66
2023/03/07 08:49:26;;;;;;;3.35;0.60;;;16.30;57.90;;;;;;3927138;30;20063;-65
2023/03/07 08:52:07;;;;;;;2.05;0.88;;;16.20;58.10;;;;;;3931083;30;20050;-65
2023/03/07 08:54:48;;;;;;;3.63;1.50;;;16.00;58.60;;;;;;3928419;30;20062;-66
2023/03/07 08:57:32;;;;;;;1.48;0.80;;;15.90;59.30;;;;;;3924246;30;20070;-66
2023/03/07 09:00:14;;;;;;;4.50;1.20;;;15.90;59.70;;;;;;3932144;30;20404;-68
2023/03/07 09:02:57;;;;;;;3.85;0.80;;;16.00;59.80;;;;;;3933943;30;20119;-67
2023/03/07 09:05:38;;;;;;;4.15;1.08;;;16.00;59.80;;;;;;3918147;30;20242;-67
2023/03/07 09:08:19;;;;;;;4.07;1.10;;;16.00;59.90;;;;;;3928589;30;20073;-68
2023/03/07 09:11:02;;;;;;;3.03;0.88;;;16.00;59.70;;;;;;3932913;30;20209;-67
2023/03/07 09:13:44;;;;;;;2.60;0.70;;;16.10;59.80;;;;;;3927530;30;20213;-67
2023/03/07 09:16:32;;;;;;;4.63;1.40;;;16.10;59.60;;;;;;3930612;30;20492;-67
2023/03/07 09:19:13;;;;;;;3.67;1.02;;;16.10;60.50;;;;;;3933826;30;20495;-67
2023/03/07 09:21:54;;;;;;;4.20;0.90;;;16.10;60.60;;;;;;3936376;30;20066;-68
2023/03/07 09:24:35;;;;;;;1.63;1.00;;;16.10;59.70;;;;;;3918447;30;20066;-67
2023/03/07 09:27:15;;;;;;;2.70;0.83;;;16.20;59.50;;;;;;3933874;30;20072;-68
2023/03/07 09:29:58;;;;;;;9.15;1.42;;;16.30;59.40;;;;;;3931451;30;20304;-67
2023/03/07 09:32:39;;;;;;;3.65;1.08;;;16.30;59.30;;;;;;3937860;30;20117;-67
2023/03/07 09:35:20;;;;;;;3.28;0.98;;;16.40;59.20;;;;;;3922249;30;20108;-72
2023/03/07 09:38:01;;;;;;;2.53;1.17;;;16.40;58.90;;;;;;3933881;30;20409;-68
2023/03/07 09:40:46;;;;;;;5.88;1.08;;;16.40;58.70;;;;;;3932327;30;20067;-68
2023/03/07 09:43:40;;;;;;;4.65;0.90;;;16.30;58.90;;;;;;3934692;30;20062;-68
2023/03/07 09:46:54;;;;;;;2.85;0.88;;;16.30;59.00;;;;;;3924449;30;20058;-68
2023/03/07 09:49:43;;;;;;;4.28;1.02;;;16.20;59.30;;;;;;3914753;30;20480;-66
2023/03/07 09:52:28;;;;;;;4.55;0.93;;;16.20;59.30;;;;;;3926310;30;20192;-67
2023/03/07 09:55:13;;;;;;;4.43;0.85;;;16.20;59.30;;;;;;3926811;30;20067;-67
2023/03/07 09:57:57;;;;;;;4.18;1.20;;;16.10;59.20;;;;;;3930051;30;20079;-68
2023/03/07 10:00:41;;;;;;;2.67;0.77;;;16.10;59.60;;;;;;3919249;30;20059;-67
2023/03/07 10:03:31;;;;;;;2.63;0.80;;;16.00;59.70;;;;;;3931741;30;20088;-67
2023/03/07 10:06:16;;;;;;;2.00;0.73;;;16.00;59.70;;;;;;3931637;30;20116;-67
2023/03/07 10:08:59;;;;;;;5.90;1.27;;;16.00;59.70;;;;;;3926934;30;20543;-67
2023/03/07 10:12:18;;;;;;;4.00;1.55;;;15.90;59.90;;;;;;3930957;30;20073;-67
2023/03/07 10:15:24;;;;;;;3.67;1.08;;;15.90;60.70;;;;;;3920379;30;20054;-68
2023/03/07 10:18:26;;;;;;;6.57;1.20;;;15.80;59.90;;;;;;3915764;30;20309;-68
2023/03/07 10:21:17;;;;;;;2.22;1.00;;;15.80;60.40;;;;;;3931423;30;20676;-66
2023/03/07 10:24:14;;;;;;;3.92;1.25;;;15.70;60.90;;;;;;3932366;30;20062;-67
2023/03/07 10:27:03;;;;;;;3.03;0.90;;;15.60;61.30;;;;;;3932367;30;20156;-68
2023/03/07 10:29:47;;;;;;;2.42;0.90;;;15.70;61.40;;;;;;3937729;30;20063;-69
2023/03/07 10:32:34;;;;;;;3.95;1.27;;;15.80;61.40;;;;;;3933868;30;20061;-68
2023/03/07 10:35:19;;;;;;;7.03;1.40;;;15.80;61.50;;;;;;3932103;30;20081;-68
2023/03/07 10:38:13;;;;;;;7.43;1.20;;;15.90;61.20;;;;;;3931882;30;20149;-68
2023/03/07 10:40:56;;;;;;;3.80;1.05;;;16.00;61.10;;;;;;3927994;30;20183;-67
2023/03/07 10:43:39;;;;;;;4.15;1.00;;;16.00;60.90;;;;;;3930397;30;20058;-67
2023/03/07 10:46:21;;;;;;;3.55;1.10;;;16.10;60.80;;;;;;3932014;30;20066;-68
2023/03/07 10:49:13;;;;;;;4.65;1.42;;;16.10;61.20;;;;;;3921470;30;20133;-68
2023/03/07 10:52:01;;;;;;;3.47;1.30;;;16.10;61.20;;;;;;3934548;30;20137;-68
2023/03/07 10:54:41;;;;;;;5.43;1.55;;;16.10;61.20;;;;;;3925001;30;20055;-68
2023/03/07 10:57:27;;;;;;;6.97;1.30;;;16.10;61.50;;;;;;3916877;30;20129;-67
2023/03/07 11:00:16;;;;;;;6.22;1.20;;;16.10;61.60;;;;;;3935883;30;20062;-67
2023/03/07 11:02:57;;;;;;;4.93;1.25;;;16.10;61.60;;;;;;3936459;30;20140;-67
2023/03/07 11:05:39;;;;;;;8.57;1.85;;;16.20;61.40;;;;;;3930238;30;20897;-67
2023/03/07 11:08:27;;;;;;;6.25;1.65;;;16.20;61.20;;;;;;3939041;30;20235;-69
2023/03/07 11:11:22;;;;;;;5.28;1.40;;;16.10;61.20;;;;;;3930115;30;20190;-67
2023/03/07 11:14:08;;;;;;;5.78;1.50;;;16.10;61.20;;;;;;3927276;30;20066;-68
2023/03/07 11:16:51;;;;;;;4.65;1.52;;;16.20;61.80;;;;;;3934276;30;20066;-67
2023/03/07 11:19:38;;;;;;;5.82;1.60;;;16.20;61.80;;;;;;3932175;30;20108;-67
2023/03/07 11:22:24;;;;;;;5.75;1.95;;;16.10;61.60;;;;;;3926056;30;20075;-67
2023/03/07 11:25:17;;;;;;;8.27;1.45;;;16.10;61.90;;;;;;3932296;30;20070;-67
2023/03/07 11:27:59;;;;;;;3.58;1.27;;;16.00;61.60;;;;;;3932563;30;20059;-67
2023/03/07 11:30:46;;;;;;;6.55;1.27;;;16.00;62.30;;;;;;3929529;30;20063;-67
2023/03/07 11:33:42;;;;;;;6.15;1.23;;;16.00;62.50;;;;;;3930719;30;20067;-67
2023/03/07 11:36:40;;;;;;;7.53;2.17;;;16.00;62.60;;;;;;3913707;30;20070;-67
2023/03/07 11:39:30;;;;;;;6.57;1.30;;;16.00;62.80;;;;;;3932716;30;20488;-67
2023/03/07 11:42:17;;;;;;;1.55;1.00;;;16.00;62.60;;;;;;3940312;30;20058;-67
2023/03/07 11:45:03;;;;;;;3.15;1.42;;;15.90;62.80;;;;;;3928417;30;20573;-67
2023/03/07 11:47:51;;;;;;;5.88;1.42;;;15.90;62.90;;;;;;3925709;30;20055;-67
2023/03/07 11:50:34;;;;;;;5.43;1.23;;;15.80;62.70;;;;;;3926527;30;20071;-67
2023/03/07 11:53:32;;;;;;;4.68;1.10;;;15.70;63.10;;;;;;3927997;30;20051;-69
2023/03/07 11:56:24;;;;;;;2.92;1.10;;;15.60;62.60;;;;;;3925797;30;20155;-66
2023/03/07 11:59:40;;;;;;;5.93;1.42;;;15.60;63.10;;;;;;3925630;30;20209;-67
2023/03/07 12:02:49;;;;;;;3.88;1.05;;;15.50;63.00;;;;;;3932884;30;20067;-67
2023/03/07 12:05:42;;;;;;;5.68;1.15;;;15.30;63.60;;;;;;3930554;30;20527;-67
2023/03/07 12:08:44;;;;;;;9.35;1.85;;;15.30;64.30;;;;;;3913897;30;20055;-67
2023/03/07 12:11:48;;;;;;;6.15;1.63;;;15.30;64.60;;;;;;3924306;30;20080;-67
2023/03/07 12:14:41;;;;;;;6.90;1.13;;;15.40;64.60;;;;;;3927544;30;20574;-67
2023/03/07 12:17:35;;;;;;;5.10;1.35;;;15.40;64.60;;;;;;3925672;30;20051;-67
2023/03/07 12:20:28;;;;;;;6.93;1.25;;;15.50;64.70;;;;;;3925223;30;20377;-67
2023/03/07 12:23:15;;;;;;;3.97;1.30;;;15.60;64.30;;;;;;3931634;30;20059;-67
2023/03/07 12:25:59;;;;;;;6.85;0.93;;;15.70;64.10;;;;;;3928520;30;20067;-67
2023/03/07 12:28:45;;;;;;;4.80;1.17;;;15.80;64.30;;;;;;3936171;30;20054;-67
2023/03/07 12:31:28;;;;;;;5.53;1.00;;;15.80;64.50;;;;;;3914268;30;20230;-67
2023/03/07 12:34:18;;;;;;;5.05;1.00;;;15.80;64.60;;;;;;3920750;30;20065;-67
2023/03/07 12:37:06;;;;;;;4.00;1.08;;;15.80;64.50;;;;;;3929830;30;20071;-67
2023/03/07 12:39:52;;;;;;;5.30;1.30;;;15.80;64.70;;;;;;3937239;30;20059;-67
2023/03/07 12:42:40;;;;;;;7.43;1.38;;;15.70;64.90;;;;;;3928213;30;20063;-67
2023/03/07 12:45:23;;;;;;;4.22;1.23;;;15.70;65.20;;;;;;3925817;30;20062;-67
2023/03/07 12:48:12;;;;;;;3.22;1.20;;;15.70;65.50;;;;;;3924420;30;20412;-68
2023/03/07 12:51:00;;;;;;;3.67;0.90;;;15.80;65.50;;;;;;3924759;30;20071;-68
2023/03/07 12:53:46;;;;;;;4.53;1.08;;;15.70;65.30;;;;;;3925172;30;20059;-68
2023/03/07 12:56:32;;;;;;;5.43;0.90;;;15.70;65.30;;;;;;3925080;30;20439;-68
2023/03/07 12:59:14;;;;;;;2.63;0.65;;;15.60;65.30;;;;;;3935550;30;20062;-67
2023/03/07 13:02:02;;;;;;;3.25;0.95;;;15.60;65.10;;;;;;3935109;30;20079;-67
2023/03/07 13:04:43;;;;;;;4.60;1.08;;;15.60;64.30;;;;;;3924507;30;20661;-67
2023/03/07 13:07:27;;;;;;;2.60;0.75;;;15.60;64.80;;;;;;3934426;30;20124;-66
2023/03/07 13:10:15;;;;;;;4.53;0.85;;;15.60;63.30;;;;;;3933786;30;20071;-66
2023/03/07 13:12:56;;;;;;;2.03;0.85;;;15.60;63.30;;;;;;3928193;30;20077;-67
2023/03/07 13:16:12;;;;;;;1.20;0.65;;;15.50;62.60;;;;;;3924512;30;20078;-66
2023/03/07 13:18:53;;;;;;;4.35;1.60;;;15.50;62.30;;;;;;3929722;30;20062;-66
2023/03/07 13:21:34;;;;;;;4.32;1.13;;;15.50;63.00;;;;;;3917428;30;20055;-66
2023/03/07 13:24:33;;;;;;;2.65;0.82;;;15.50;61.80;;;;;;3923817;30;20092;-66
2023/03/07 13:27:16;;;;;;;3.80;1.35;;;15.40;61.10;;;;;;3930136;30;20796;-66
2023/03/07 13:30:16;;;;;;;3.10;0.80;;;15.30;63.30;;;;;;3934504;30;20141;-66
2023/03/07 13:32:59;;;;;;;3.50;0.63;;;15.30;61.00;;;;;;3924191;30;20121;-67
2023/03/07 13:35:55;;;;;;;3.58;0.75;;;15.20;62.80;;;;;;3933117;30;20425;-68
2023/03/07 13:38:42;;;;;;;4.57;0.90;;;15.20;61.70;;;;;;3925103;30;20190;-69
2023/03/07 13:41:45;;;;;;;1.25;1.10;;;15.10;60.50;;;;;;3937052;30;20413;-69
2023/03/07 13:44:30;;;;;;;2.42;0.90;;;15.00;56.60;;;;;;3928253;30;20520;-70
2023/03/07 13:47:41;;;;;;;5.07;1.33;;;14.90;58.10;;;;;;3938365;30;20400;-70
2023/03/07 13:50:39;;;;;;;4.22;0.73;;;14.90;58.50;;;;;;3925374;30;20067;-71
2023/03/07 13:53:22;;;;;;;2.45;0.95;;;14.80;59.60;;;;;;3914846;30;20078;-71
2023/03/07 13:56:11;;;;;;;5.28;0.95;;;14.80;59.10;;;;;;3924777;30;20622;-71
2023/03/07 13:58:57;;;;;;;1.88;0.75;;;14.70;59.00;;;;;;3933251;30;20062;-71
2023/03/07 14:01:46;;;;;;;0.88;0.60;;;14.70;61.20;;;;;;3928268;30;20127;-70
2023/03/07 14:04:30;;;;;;;1.95;0.50;;;14.60;59.50;;;;;;3936757;30;20192;-71
2023/03/07 14:07:23;;;;;;;3.20;0.80;;;14.60;57.60;;;;;;3931476;30;20080;-70
2023/03/07 14:10:14;;;;;;;7.88;1.05;;;14.50;59.60;;;;;;3930416;30;20054;-70
2023/03/07 14:13:26;;;;;;;3.80;1.10;;;14.50;59.00;;;;;;3930053;30;20100;-69
2023/03/07 14:16:26;;;;;;;5.75;2.30;;;14.40;58.60;;;;;;3925880;30;20066;-69
2023/03/07 14:19:19;;;;;;;2.90;1.52;;;14.30;59.00;;;;;;3930231;30;20070;-69